createdAt,value
2022-08-17T00:04:12.352Z,14.00
2022-08-17T00:10:18.619Z,10.77
2022-08-17T00:16:22.459Z,12.82
2022-08-17T00:22:44.362Z,11.23
2022-08-17T00:28:45.914Z,12.52
2022-08-17T00:34:47.500Z,12.67
2022-08-17T00:40:51.745Z,11.68
2022-08-17T00:46:53.531Z,12.52
2022-08-17T00:52:55.969Z,12.77
2022-08-17T00:58:57.830Z,12.75
2022-08-17T01:04:59.384Z,11.33
2022-08-17T01:11:02.460Z,11.38
2022-08-17T01:17:04.839Z,11.52
2022-08-17T01:23:06.354Z,8.77
2022-08-17T01:29:08.323Z,9.98
2022-08-17T01:35:09.833Z,15.27
2022-08-17T01:41:13.506Z,8.90
2022-08-17T01:47:15.016Z,11.85
2022-08-17T01:53:22.460Z,11.13
2022-08-17T01:59:24.040Z,9.98
2022-08-17T02:05:25.614Z,11.83
2022-08-17T02:11:27.103Z,11.52
2022-08-17T02:17:29.869Z,11.55
2022-08-17T02:23:33.292Z,10.87
2022-08-17T02:29:34.906Z,9.65
2022-08-17T02:35:37.635Z,9.87
2022-08-17T02:41:39.868Z,9.07
2022-08-17T02:47:41.486Z,9.75
2022-08-17T02:53:42.975Z,10.13
2022-08-17T02:59:48.956Z,10.65
2022-08-17T03:05:51.369Z,9.37
2022-08-17T03:11:53.109Z,10.93
2022-08-17T03:17:57.804Z,9.73
2022-08-17T03:23:59.343Z,9.40
2022-08-17T03:30:00.872Z,10.27
2022-08-17T03:36:02.389Z,9.63
2022-08-17T03:42:07.636Z,9.52
2022-08-17T03:48:28.669Z,12.07
2022-08-17T03:54:49.059Z,9.97
2022-08-17T04:00:50.815Z,8.90
2022-08-17T04:06:52.642Z,10.80
2022-08-17T04:12:54.921Z,9.90
2022-08-17T04:18:56.484Z,10.32
2022-08-17T04:24:58.127Z,8.43
2022-08-17T04:31:00.311Z,10.25
2022-08-17T04:37:01.788Z,8.77
2022-08-17T04:43:08.501Z,13.05
2022-08-17T04:49:11.068Z,12.10
2022-08-17T04:55:12.556Z,9.37
2022-08-17T05:01:14.624Z,9.13
2022-08-17T05:07:19.828Z,9.10
2022-08-17T05:13:26.003Z,9.70
2022-08-17T05:19:27.495Z,9.45
2022-08-17T05:25:34.473Z,10.90
2022-08-17T05:31:38.886Z,9.20
2022-08-17T05:37:40.412Z,11.70
2022-08-17T05:43:42.204Z,8.65
2022-08-17T05:49:43.819Z,9.85
2022-08-17T05:56:02.328Z,10.63
2022-08-17T06:02:23.660Z,12.93
2022-08-17T06:08:25.089Z,11.10
2022-08-17T06:14:32.819Z,11.27
2022-08-17T06:20:43.154Z,16.13
2022-08-17T06:26:45.303Z,12.07
2022-08-17T06:32:48.330Z,12.48
2022-08-17T06:39:12.927Z,10.80
2022-08-17T06:45:17.060Z,13.75
2022-08-17T06:51:25.006Z,17.20
2022-08-17T06:57:28.478Z,13.03
2022-08-17T07:03:41.458Z,13.57
2022-08-17T07:09:42.953Z,12.07
2022-08-17T07:15:44.806Z,12.23
2022-08-17T07:22:01.605Z,10.13
2022-08-17T07:28:07.003Z,11.37
2022-08-17T07:34:14.459Z,16.85
2022-08-17T07:40:18.073Z,13.80
2022-08-17T07:46:39.812Z,15.33
2022-08-17T07:52:50.397Z,8.57
2022-08-17T07:59:06.272Z,11.17
2022-08-17T08:05:44.292Z,10.27
2022-08-17T08:11:47.419Z,9.70
2022-08-17T08:17:49.352Z,13.57
2022-08-17T08:23:57.375Z,16.08
2022-08-17T08:30:04.931Z,22.13
2022-08-17T08:37:14.337Z,14.55
2022-08-17T08:42:49.259Z,11.13
2022-08-17T08:49:10.194Z,15.93
2022-08-17T08:55:18.395Z,14.85
2022-08-17T09:01:38.583Z,11.90
2022-08-17T09:07:54.676Z,6.80
2022-08-17T09:14:22.093Z,9.52
2022-08-17T09:20:34.114Z,11.90
2022-08-17T09:27:05.091Z,7.97
2022-08-17T09:33:08.190Z,8.67
2022-08-17T09:39:15.689Z,14.27
2022-08-17T09:45:24.051Z,6.97
2022-08-17T09:51:31.117Z,6.30
2022-08-17T09:58:05.525Z,8.93
2022-08-17T10:04:14.504Z,7.10
2022-08-17T10:10:20.941Z,13.85
2022-08-17T10:16:30.421Z,8.93
2022-08-17T10:23:06.764Z,7.50
2022-08-17T10:29:12.417Z,6.70
2022-08-17T10:35:30.216Z,9.70
2022-08-17T10:41:40.557Z,6.90
2022-08-17T10:48:04.771Z,5.47
2022-08-17T10:54:27.169Z,6.53
2022-08-17T11:00:40.849Z,6.95
2022-08-17T11:06:50.355Z,8.83
2022-08-17T11:13:08.857Z,7.97
2022-08-17T11:19:32.848Z,6.05
2022-08-17T11:25:38.391Z,6.30
2022-08-17T11:31:41.775Z,5.13
2022-08-17T11:37:50.826Z,5.97
2022-08-17T11:44:03.847Z,7.55
2022-08-17T11:50:44.629Z,6.45
2022-08-17T11:56:50.546Z,10.50
2022-08-17T12:03:12.885Z,5.85
2022-08-17T12:09:24.834Z,9.33
2022-08-17T12:15:35.987Z,7.32
2022-08-17T12:21:54.778Z,5.78
2022-08-17T12:28:06.468Z,5.13
2022-08-17T12:34:12.439Z,6.60
2022-08-17T12:40:19.202Z,13.93
2022-08-17T12:46:20.698Z,4.88
2022-08-17T12:52:28.117Z,8.73
2022-08-17T12:58:31.574Z,5.37
2022-08-17T13:04:33.945Z,5.72
2022-08-17T13:10:36.194Z,8.07
2022-08-17T13:16:37.732Z,6.50
2022-08-17T13:22:39.489Z,10.23
2022-08-17T13:28:47.268Z,13.15
2022-08-17T13:35:15.056Z,8.68
2022-08-17T13:41:33.556Z,7.97
2022-08-17T13:47:35.058Z,7.20
2022-08-17T13:53:37.033Z,7.93
2022-08-17T13:59:54.944Z,7.67
2022-08-17T14:05:57.404Z,7.78
2022-08-17T14:11:59.383Z,7.47
2022-08-17T14:18:00.895Z,7.77
2022-08-17T14:24:02.485Z,6.80
2022-08-17T14:30:04.388Z,7.95
2022-08-17T14:36:05.984Z,6.88
2022-08-17T14:42:07.700Z,8.40
2022-08-17T14:48:09.324Z,8.05
2022-08-17T14:54:11.314Z,7.25
2022-08-17T15:00:13.577Z,7.57
2022-08-17T15:06:15.288Z,8.23
2022-08-17T15:12:19.692Z,8.27
2022-08-17T15:18:21.414Z,7.03
2022-08-17T15:24:23.757Z,6.20
2022-08-17T15:30:26.887Z,6.43
2022-08-17T15:36:28.752Z,8.20
2022-08-17T15:42:30.450Z,4.90
2022-08-17T15:48:43.019Z,4.93
2022-08-17T15:54:57.399Z,5.45
2022-08-17T16:01:14.834Z,6.73
2022-08-17T16:07:26.407Z,5.23
2022-08-17T16:13:28.349Z,4.50
2022-08-17T16:19:29.899Z,5.13
2022-08-17T16:25:52.182Z,5.50
2022-08-17T16:31:54.672Z,6.63
2022-08-17T16:37:57.195Z,5.40
2022-08-17T16:43:59.003Z,6.55
2022-08-17T16:50:03.492Z,5.35
2022-08-17T16:56:07.421Z,6.87
2022-08-17T17:02:13.030Z,6.68
2022-08-17T17:08:14.753Z,5.73
2022-08-17T17:14:28.376Z,5.40
2022-08-17T17:20:36.209Z,5.30
2022-08-17T17:27:00.843Z,6.13
2022-08-17T17:33:14.416Z,7.30
2022-08-17T17:39:19.887Z,5.75
2022-08-17T17:45:26.302Z,6.43
2022-08-17T17:52:06.548Z,7.03
2022-08-17T17:58:18.187Z,5.75
2022-08-17T18:04:20.570Z,6.23
2022-08-17T18:10:31.775Z,6.50
2022-08-17T18:16:33.488Z,6.33
2022-08-17T18:22:34.986Z,5.68
2022-08-17T18:28:39.750Z,6.72
2022-08-17T18:34:47.521Z,7.27
2022-08-17T18:40:57.416Z,7.40
2022-08-17T18:47:13.774Z,9.93
2022-08-17T18:53:18.982Z,6.93
2022-08-17T18:59:39.489Z,8.65
2022-08-17T19:05:42.698Z,9.80
2022-08-17T19:11:45.236Z,10.38
2022-08-17T19:17:51.377Z,7.67
2022-08-17T19:24:03.255Z,7.70
2022-08-17T19:30:11.885Z,8.13
2022-08-17T19:36:22.335Z,6.77
2022-08-17T19:42:32.963Z,9.27
2022-08-17T19:48:53.399Z,8.23
2022-08-17T19:55:02.800Z,8.35
2022-08-17T20:01:04.993Z,8.40
2022-08-17T20:07:10.590Z,8.90
2022-08-17T20:13:19.610Z,8.60
2022-08-17T20:19:38.392Z,8.60
2022-08-17T20:25:47.354Z,7.00
2022-08-17T20:32:05.691Z,7.03
2022-08-17T20:38:10.470Z,6.87
2022-08-17T20:44:11.958Z,8.50
2022-08-17T20:50:25.332Z,7.77
2022-08-17T20:56:42.208Z,8.90
2022-08-17T21:02:45.182Z,6.95
2022-08-17T21:08:53.427Z,8.77
2022-08-17T21:14:59.782Z,8.63
2022-08-17T21:21:17.712Z,8.50
2022-08-17T21:27:38.999Z,7.70
2022-08-17T21:34:01.092Z,7.93
2022-08-17T21:40:18.259Z,9.73
2022-08-17T21:46:40.045Z,8.57
2022-08-17T21:52:41.588Z,10.07
2022-08-17T21:58:48.283Z,9.07
2022-08-17T22:05:00.719Z,10.23
2022-08-17T22:11:02.283Z,10.27
2022-08-17T22:17:09.604Z,11.10
2022-08-17T22:23:31.650Z,9.80
2022-08-17T22:29:42.670Z,8.50
2022-08-17T22:35:45.416Z,10.07
2022-08-17T22:41:48.136Z,7.77
2022-08-17T22:47:53.531Z,8.65
2022-08-17T22:54:16.010Z,12.13
2022-08-17T23:00:28.315Z,9.60
2022-08-17T23:06:30.536Z,11.40
2022-08-17T23:12:32.628Z,9.03
2022-08-17T23:18:34.126Z,11.10
2022-08-17T23:24:41.578Z,9.33
2022-08-17T23:30:44.015Z,7.72
2022-08-17T23:36:53.138Z,12.23
2022-08-17T23:42:55.044Z,9.00
2022-08-17T23:48:56.819Z,9.02
2022-08-17T23:54:59.352Z,9.80
